createdAt,value
2023-02-01T00:00:34.384Z,84.41
2023-02-01T00:03:01.903Z,84.55
2023-02-01T00:05:28.675Z,84.14
2023-02-01T00:07:55.877Z,83.91
2023-02-01T00:10:22.902Z,83.85
2023-02-01T00:12:49.905Z,83.82
2023-02-01T00:15:16.821Z,84.11
2023-02-01T00:17:43.562Z,84.36
2023-02-01T00:20:11.434Z,84.20
2023-02-01T00:22:38.277Z,84.40
2023-02-01T00:25:05.711Z,84.55
2023-02-01T00:27:32.514Z,84.74
2023-02-01T00:29:59.331Z,85.18
2023-02-01T00:32:26.312Z,85.58
2023-02-01T00:34:53.161Z,85.45
2023-02-01T00:37:19.955Z,85.41
2023-02-01T00:39:46.969Z,85.17
2023-02-01T00:42:13.801Z,85.31
2023-02-01T00:44:40.617Z,85.37
2023-02-01T00:47:07.455Z,85.12
2023-02-01T00:49:34.282Z,85.08
2023-02-01T00:52:01.080Z,85.01
2023-02-01T00:54:28.322Z,85.26
2023-02-01T00:56:55.143Z,85.55
2023-02-01T00:59:21.918Z,85.63
2023-02-01T01:01:48.862Z,85.32
2023-02-01T01:04:15.745Z,85.28
2023-02-01T01:06:42.618Z,85.45
2023-02-01T01:09:10.918Z,85.23
2023-02-01T01:11:39.590Z,85.15
2023-02-01T01:14:08.873Z,84.89
2023-02-01T01:16:36.028Z,85.10
2023-02-01T01:19:03.618Z,85.15
2023-02-01T01:21:31.211Z,85.31
2023-02-01T01:23:58.626Z,85.71
2023-02-01T01:26:28.563Z,85.67
2023-02-01T01:29:00.344Z,85.96
2023-02-01T01:31:28.553Z,86.07
2023-02-01T01:33:58.431Z,86.26
2023-02-01T01:36:28.000Z,86.04
2023-02-01T01:38:55.007Z,86.35
2023-02-01T01:41:30.480Z,86.37
2023-02-01T01:44:46.122Z,87.39
2023-02-01T01:47:13.735Z,87.61
2023-02-01T01:49:40.970Z,88.43
2023-02-01T01:52:08.768Z,88.70
2023-02-01T01:54:40.917Z,88.97
2023-02-01T01:57:20.175Z,89.17
2023-02-01T01:59:55.837Z,89.43
2023-02-01T02:02:22.733Z,89.77
2023-02-01T02:04:49.788Z,89.43
2023-02-01T02:07:23.721Z,89.52
2023-02-01T02:10:00.010Z,89.45
2023-02-01T02:12:27.551Z,89.14
2023-02-01T02:14:54.818Z,89.17
2023-02-01T02:17:44.823Z,89.49
2023-02-01T02:21:04.996Z,90.07
2023-02-01T02:23:35.427Z,90.01
2023-02-01T02:26:14.975Z,90.10
2023-02-01T02:29:12.745Z,90.33
2023-02-01T02:32:37.024Z,90.65
2023-02-01T02:35:15.533Z,90.62
2023-02-01T02:37:58.053Z,90.62
2023-02-01T02:40:33.753Z,90.69
2023-02-01T02:43:36.179Z,90.54
2023-02-01T02:46:26.411Z,90.43
2023-02-01T02:48:58.768Z,90.13
2023-02-01T02:51:54.297Z,89.85
2023-02-01T02:54:48.417Z,89.75
2023-02-01T02:57:42.002Z,89.36
2023-02-01T03:00:36.250Z,89.49
2023-02-01T03:03:22.057Z,89.36
2023-02-01T03:05:51.634Z,89.07
2023-02-01T03:08:27.755Z,89.06
2023-02-01T03:11:09.479Z,88.90
2023-02-01T03:13:55.581Z,88.85
2023-02-01T03:16:38.661Z,88.96
2023-02-01T03:19:17.574Z,89.05
2023-02-01T03:22:05.625Z,89.10
2023-02-01T03:24:57.136Z,88.89
2023-02-01T03:27:36.137Z,89.02
2023-02-01T03:30:27.017Z,89.05
2023-02-01T03:33:02.847Z,89.10
2023-02-01T03:35:58.112Z,88.63
2023-02-01T03:38:34.397Z,88.59
2023-02-01T03:41:10.487Z,88.61
2023-02-01T03:43:52.299Z,88.52
2023-02-01T03:46:29.625Z,88.48
2023-02-01T03:48:56.946Z,88.46
2023-02-01T03:51:24.801Z,88.40
2023-02-01T03:53:54.924Z,88.45
2023-02-01T03:56:26.187Z,88.18
2023-02-01T03:59:01.946Z,88.60
2023-02-01T04:01:32.497Z,88.47
2023-02-01T04:03:59.489Z,88.59
2023-02-01T04:06:26.637Z,88.77
2023-02-01T04:08:53.716Z,88.74
2023-02-01T04:11:20.577Z,88.79
2023-02-01T04:13:47.341Z,88.83
2023-02-01T04:16:14.148Z,89.05
2023-02-01T04:18:41.132Z,89.18
2023-02-01T04:21:08.004Z,89.49
2023-02-01T04:23:35.192Z,89.88
2023-02-01T04:26:04.330Z,90.03
2023-02-01T04:28:32.186Z,90.73
2023-02-01T04:30:59.068Z,90.68
2023-02-01T04:33:25.903Z,91.28
2023-02-01T04:35:52.804Z,91.16
2023-02-01T04:38:19.757Z,91.09
2023-02-01T04:40:49.335Z,91.23
2023-02-01T04:43:18.265Z,91.58
2023-02-01T04:45:51.949Z,92.08
2023-02-01T04:48:20.177Z,91.78
2023-02-01T04:50:49.607Z,92.21
2023-02-01T04:53:16.886Z,92.47
2023-02-01T04:55:51.197Z,92.93
2023-02-01T04:58:17.987Z,92.75
2023-02-01T05:00:44.763Z,93.14
2023-02-01T05:03:11.527Z,93.82
2023-02-01T05:05:38.304Z,93.80
2023-02-01T05:08:05.079Z,93.78
2023-02-01T05:10:31.840Z,94.25
2023-02-01T05:13:17.144Z,94.16
2023-02-01T05:15:44.064Z,94.17
2023-02-01T05:18:10.858Z,94.20
2023-02-01T05:20:37.821Z,94.53
2023-02-01T05:23:04.956Z,94.43
2023-02-01T05:25:31.870Z,94.74
2023-02-01T05:27:58.647Z,94.82
2023-02-01T05:30:25.664Z,95.32
2023-02-01T05:32:54.517Z,95.23
2023-02-01T05:35:21.431Z,95.17
2023-02-01T05:37:48.271Z,95.09
2023-02-01T05:40:15.335Z,95.19
2023-02-01T05:42:42.111Z,95.24
2023-02-01T05:45:09.653Z,94.99
2023-02-01T05:47:36.437Z,94.98
2023-02-01T05:50:05.243Z,94.89
2023-02-01T05:52:32.496Z,94.58
2023-02-01T05:54:59.570Z,94.22
2023-02-01T05:57:26.513Z,94.38
2023-02-01T05:59:53.332Z,94.15
2023-02-01T06:02:20.170Z,94.14
2023-02-01T06:04:46.980Z,93.81
2023-02-01T06:07:14.075Z,93.93
2023-02-01T06:09:40.847Z,93.56
2023-02-01T06:12:08.030Z,93.72
2023-02-01T06:14:35.276Z,93.53
2023-02-01T06:17:02.162Z,93.69
2023-02-01T06:19:29.511Z,93.38
2023-02-01T06:21:56.329Z,93.67
2023-02-01T06:24:23.142Z,93.79
2023-02-01T06:26:49.924Z,93.53
2023-02-01T06:29:16.775Z,93.58
2023-02-01T06:31:44.157Z,93.59
2023-02-01T06:34:10.981Z,93.92
2023-02-01T06:36:37.758Z,93.93
2023-02-01T06:39:05.154Z,94.37
2023-02-01T06:41:31.999Z,94.63
2023-02-01T06:43:59.042Z,94.71
2023-02-01T06:46:25.984Z,94.84
2023-02-01T06:48:52.846Z,95.19
2023-02-01T06:51:29.475Z,95.05
2023-02-01T06:53:56.915Z,95.16
2023-02-01T06:56:24.226Z,95.18
2023-02-01T06:58:51.643Z,95.04
2023-02-01T07:01:19.288Z,95.13
2023-02-01T07:03:52.352Z,95.15
2023-02-01T07:06:19.887Z,95.16
2023-02-01T07:08:46.650Z,95.09
2023-02-01T07:11:15.863Z,94.74
2023-02-01T07:13:42.814Z,95.05
2023-02-01T07:16:16.907Z,94.81
2023-02-01T07:18:44.419Z,94.85
2023-02-01T07:21:11.586Z,94.90
2023-02-01T07:23:38.976Z,94.79
2023-02-01T07:26:08.701Z,95.04
2023-02-01T07:28:37.188Z,94.96
2023-02-01T07:31:10.931Z,94.65
2023-02-01T07:33:38.167Z,94.85
2023-02-01T07:36:07.994Z,94.81
2023-02-01T07:38:35.169Z,95.01
2023-02-01T07:41:04.902Z,95.01
2023-02-01T07:43:33.243Z,94.88
2023-02-01T07:46:00.775Z,94.71
2023-02-01T07:48:28.310Z,94.64
2023-02-01T07:51:12.869Z,94.64
2023-02-01T07:53:40.321Z,94.32
2023-02-01T07:56:17.392Z,94.23
2023-02-01T07:58:44.679Z,94.70
2023-02-01T08:01:25.597Z,94.67
2023-02-01T08:03:56.027Z,94.65
2023-02-01T08:06:24.970Z,94.62
2023-02-01T08:08:53.218Z,94.56
2023-02-01T08:11:22.717Z,94.67
2023-02-01T08:13:49.874Z,94.43
2023-02-01T08:16:18.849Z,94.09
2023-02-01T08:18:46.151Z,93.99
2023-02-01T08:21:16.755Z,93.77
2023-02-01T08:23:44.446Z,93.57
2023-02-01T08:26:26.795Z,93.53
2023-02-01T08:29:05.990Z,92.96
2023-02-01T08:31:32.885Z,92.82
2023-02-01T08:34:04.768Z,92.38
2023-02-01T08:36:32.492Z,92.49
2023-02-01T08:38:59.527Z,92.30
2023-02-01T08:41:30.249Z,92.14
2023-02-01T08:43:58.255Z,91.98
2023-02-01T08:46:25.965Z,92.16
2023-02-01T08:48:53.619Z,91.91
2023-02-01T08:51:23.011Z,91.67
2023-02-01T08:53:50.469Z,91.91
2023-02-01T08:56:19.744Z,91.68
2023-02-01T08:58:46.716Z,91.46
2023-02-01T09:01:18.395Z,91.56
2023-02-01T09:03:46.698Z,91.17
2023-02-01T09:06:15.966Z,90.87
2023-02-01T09:08:43.335Z,90.72
2023-02-01T09:11:22.992Z,90.33
2023-02-01T09:13:50.118Z,90.31
2023-02-01T09:16:17.065Z,90.14
2023-02-01T09:18:55.477Z,89.04
2023-02-01T09:21:29.056Z,88.81
2023-02-01T09:23:56.095Z,88.68
2023-02-01T09:26:31.519Z,88.13
2023-02-01T09:29:00.212Z,88.00
2023-02-01T09:31:27.233Z,87.89
2023-02-01T09:33:54.206Z,87.79
2023-02-01T09:36:21.110Z,87.53
2023-02-01T09:38:52.806Z,87.05
2023-02-01T09:41:28.025Z,87.04
2023-02-01T09:44:15.348Z,86.65
2023-02-01T09:46:42.348Z,86.59
2023-02-01T09:49:21.125Z,86.68
2023-02-01T09:51:51.436Z,86.60
2023-02-01T09:54:26.685Z,86.38
2023-02-01T09:57:02.863Z,86.01
2023-02-01T09:59:45.854Z,85.94
2023-02-01T10:02:18.973Z,85.83
2023-02-01T10:04:46.545Z,85.53
2023-02-01T10:08:11.221Z,85.17
2023-02-01T10:10:48.185Z,84.64
2023-02-01T10:13:23.886Z,84.58
2023-02-01T10:16:14.237Z,84.29
2023-02-01T10:19:02.549Z,84.23
2023-02-01T10:21:40.765Z,84.24
2023-02-01T10:24:38.714Z,83.27
2023-02-01T10:27:24.401Z,82.91
2023-02-01T10:30:05.714Z,83.35
2023-02-01T10:32:36.020Z,83.08
2023-02-01T10:35:16.257Z,82.60
2023-02-01T10:37:44.692Z,82.28
2023-02-01T10:40:18.100Z,82.80
2023-02-01T10:42:45.683Z,82.45
2023-02-01T10:45:20.899Z,82.22
2023-02-01T10:47:51.034Z,82.33
2023-02-01T10:50:35.929Z,82.54
2023-02-01T10:53:13.652Z,81.93
2023-02-01T10:55:46.847Z,82.08
2023-02-01T10:58:27.940Z,81.91
2023-02-01T11:01:07.911Z,81.55
2023-02-01T11:03:42.264Z,81.57
2023-02-01T11:06:27.578Z,81.42
2023-02-01T11:09:01.150Z,81.01
2023-02-01T11:11:30.274Z,81.50
2023-02-01T11:14:17.399Z,80.91
2023-02-01T11:16:54.753Z,81.16
2023-02-01T11:19:22.431Z,81.46
2023-02-01T11:21:54.914Z,81.35
2023-02-01T11:24:34.427Z,81.07
2023-02-01T11:27:06.800Z,81.04
2023-02-01T11:29:41.705Z,81.52
2023-02-01T11:32:10.183Z,81.88
2023-02-01T11:34:45.529Z,81.17
2023-02-01T11:37:32.258Z,80.41
2023-02-01T11:40:02.758Z,79.88
2023-02-01T11:42:30.458Z,79.81
2023-02-01T11:45:26.804Z,79.46
2023-02-01T11:47:55.968Z,79.67
2023-02-01T11:51:07.059Z,79.71
2023-02-01T11:54:08.751Z,79.00
2023-02-01T11:57:16.329Z,78.51
2023-02-01T12:00:14.684Z,78.58
2023-02-01T12:03:03.386Z,78.77
2023-02-01T12:05:51.977Z,78.20
2023-02-01T12:08:46.842Z,78.24
2023-02-01T12:11:26.104Z,78.52
2023-02-01T12:14:13.710Z,79.06
2023-02-01T12:17:01.642Z,78.16
2023-02-01T12:19:46.928Z,77.82
2023-02-01T12:22:35.090Z,77.87
2023-02-01T12:25:58.357Z,76.69
2023-02-01T12:29:13.156Z,76.07
2023-02-01T12:32:14.739Z,74.93
2023-02-01T12:35:12.399Z,74.85
2023-02-01T12:38:01.599Z,74.11
2023-02-01T12:40:52.716Z,73.65
2023-02-01T12:43:44.837Z,73.35
2023-02-01T12:46:18.826Z,73.81
2023-02-01T12:49:05.605Z,74.20
2023-02-01T12:51:43.190Z,73.51
2023-02-01T12:54:50.275Z,74.19
2023-02-01T12:57:29.536Z,72.99
2023-02-01T13:00:32.810Z,72.97
2023-02-01T13:03:32.378Z,72.51
2023-02-01T13:06:19.020Z,72.96
2023-02-01T13:08:59.692Z,72.73
2023-02-01T13:11:32.865Z,72.78
2023-02-01T13:14:43.444Z,72.17
2023-02-01T13:17:25.803Z,72.25
2023-02-01T13:20:25.545Z,71.22
2023-02-01T13:23:18.802Z,71.67
2023-02-01T13:25:51.672Z,72.00
2023-02-01T13:28:28.711Z,72.24
2023-02-01T13:31:09.863Z,71.66
2023-02-01T13:33:56.993Z,71.21
2023-02-01T13:36:39.611Z,70.73
2023-02-01T13:39:37.751Z,70.12
2023-02-01T13:42:28.382Z,69.88
2023-02-01T13:45:05.331Z,69.63
2023-02-01T13:47:45.160Z,69.83
2023-02-01T13:50:23.535Z,70.70
2023-02-01T13:53:01.756Z,70.79
2023-02-01T13:55:36.272Z,71.10
2023-02-01T13:58:14.918Z,72.00
2023-02-01T14:00:46.618Z,71.24
2023-02-01T14:03:23.933Z,71.59
2023-02-01T14:05:50.903Z,72.35
2023-02-01T14:08:42.196Z,72.44
2023-02-01T14:11:50.981Z,72.31
2023-02-01T14:14:17.776Z,72.87
2023-02-01T14:17:11.101Z,72.95
2023-02-01T14:19:38.465Z,73.18
2023-02-01T14:22:27.249Z,72.88
2023-02-01T14:24:59.366Z,72.79
2023-02-01T14:27:36.372Z,72.54
2023-02-01T14:30:09.450Z,71.81
2023-02-01T14:32:39.513Z,71.90
2023-02-01T14:35:30.416Z,71.63
2023-02-01T14:38:04.049Z,71.64
2023-02-01T14:40:32.107Z,71.08
2023-02-01T14:42:58.940Z,71.69
2023-02-01T14:45:29.199Z,71.97
2023-02-01T14:48:11.190Z,71.28
2023-02-01T14:50:48.297Z,71.81
2023-02-01T14:53:26.054Z,71.76
2023-02-01T14:56:15.183Z,72.49
2023-02-01T14:58:59.682Z,72.52
2023-02-01T15:01:36.359Z,72.31
2023-02-01T15:04:16.206Z,72.26
2023-02-01T15:06:56.019Z,73.16
2023-02-01T15:09:30.358Z,72.74
2023-02-01T15:12:25.281Z,72.83
2023-02-01T15:15:24.243Z,72.08
2023-02-01T15:18:01.178Z,72.49
2023-02-01T15:20:33.991Z,72.45
2023-02-01T15:23:06.320Z,72.60
2023-02-01T15:25:42.316Z,73.27
2023-02-01T15:28:15.876Z,73.43
2023-02-01T15:30:58.700Z,73.91
2023-02-01T15:33:27.855Z,73.70
2023-02-01T15:36:19.668Z,74.17
2023-02-01T15:38:46.742Z,73.98
2023-02-01T15:41:15.683Z,74.50
2023-02-01T15:43:56.254Z,74.64
2023-02-01T15:46:37.220Z,74.34
2023-02-01T15:49:05.308Z,75.08
2023-02-01T15:51:36.727Z,75.02
2023-02-01T15:54:11.229Z,75.14
2023-02-01T15:56:44.955Z,75.03
2023-02-01T15:59:20.780Z,75.22
2023-02-01T16:01:48.088Z,75.56
2023-02-01T16:04:34.032Z,75.62
2023-02-01T16:07:05.713Z,75.82
2023-02-01T16:09:57.157Z,75.95
2023-02-01T16:12:44.123Z,76.15
2023-02-01T16:15:10.885Z,76.24
2023-02-01T16:17:37.841Z,76.71
2023-02-01T16:20:05.346Z,76.49
2023-02-01T16:22:32.369Z,76.71
2023-02-01T16:24:59.149Z,76.62
2023-02-01T16:27:25.966Z,76.75
2023-02-01T16:29:52.787Z,76.50
2023-02-01T16:32:23.360Z,76.52
2023-02-01T16:34:50.371Z,76.92
2023-02-01T16:37:24.609Z,76.90
2023-02-01T16:39:52.678Z,77.18
2023-02-01T16:42:19.663Z,76.93
2023-02-01T16:44:46.580Z,77.15
2023-02-01T16:47:19.499Z,77.16
2023-02-01T16:49:47.942Z,77.07
2023-02-01T16:52:22.959Z,77.10
2023-02-01T16:54:50.191Z,77.28
2023-02-01T16:57:20.880Z,77.31
2023-02-01T16:59:47.709Z,77.40
2023-02-01T17:02:18.459Z,77.06
2023-02-01T17:04:45.436Z,77.56
2023-02-01T17:07:19.963Z,77.32
2023-02-01T17:09:48.504Z,77.69
2023-02-01T17:12:29.616Z,77.80
2023-02-01T17:14:58.516Z,77.75
2023-02-01T17:17:39.567Z,78.02
2023-02-01T17:20:07.841Z,77.99
2023-02-01T17:22:34.763Z,77.88
2023-02-01T17:25:01.623Z,78.29
2023-02-01T17:27:30.464Z,78.47
2023-02-01T17:29:57.328Z,78.37
2023-02-01T17:32:26.622Z,78.45
2023-02-01T17:34:53.829Z,78.45
2023-02-01T17:37:31.892Z,78.46
2023-02-01T17:39:59.578Z,78.13
2023-02-01T17:42:29.907Z,78.32
2023-02-01T17:45:02.715Z,78.20
2023-02-01T17:47:29.553Z,78.43
2023-02-01T17:49:57.098Z,78.21
2023-02-01T17:52:26.378Z,78.37
2023-02-01T17:54:54.406Z,78.14
2023-02-01T17:57:21.441Z,78.41
2023-02-01T17:59:48.495Z,78.64
2023-02-01T18:02:25.545Z,78.71
2023-02-01T18:04:52.803Z,78.35
2023-02-01T18:07:19.664Z,78.37
2023-02-01T18:09:46.688Z,78.42
2023-02-01T18:12:23.374Z,78.57
2023-02-01T18:14:50.407Z,78.82
2023-02-01T18:17:17.226Z,79.10
2023-02-01T18:19:43.995Z,79.16
2023-02-01T18:22:18.115Z,79.42
2023-02-01T18:24:45.041Z,79.29
2023-02-01T18:27:11.781Z,79.56
2023-02-01T18:29:38.704Z,79.72
2023-02-01T18:32:05.712Z,79.77
2023-02-01T18:34:32.473Z,80.40
2023-02-01T18:36:59.366Z,80.16
2023-02-01T18:39:26.119Z,80.15
2023-02-01T18:41:53.276Z,80.42
2023-02-01T18:44:20.496Z,80.51
2023-02-01T18:46:47.296Z,80.57
2023-02-01T18:49:18.121Z,80.87
2023-02-01T18:51:45.632Z,81.39
2023-02-01T18:54:12.587Z,81.51
2023-02-01T18:56:40.061Z,81.59
2023-02-01T18:59:07.046Z,81.86
2023-02-01T19:01:33.840Z,82.19
2023-02-01T19:04:08.510Z,82.46
2023-02-01T19:06:38.638Z,83.05
2023-02-01T19:09:05.388Z,83.33
2023-02-01T19:11:32.152Z,83.27
2023-02-01T19:13:58.932Z,83.90
2023-02-01T19:16:25.711Z,83.56
2023-02-01T19:18:53.647Z,83.83
2023-02-01T19:21:20.544Z,83.75
2023-02-01T19:23:47.542Z,84.37
2023-02-01T19:26:16.635Z,84.20
2023-02-01T19:28:48.143Z,83.87
2023-02-01T19:31:16.354Z,83.74
2023-02-01T19:33:43.272Z,84.01
2023-02-01T19:36:11.097Z,84.11
2023-02-01T19:38:38.935Z,83.84
2023-02-01T19:41:06.258Z,83.66
2023-02-01T19:43:33.601Z,83.86
2023-02-01T19:46:03.102Z,83.53
2023-02-01T19:48:31.580Z,83.81
2023-02-01T19:50:59.297Z,83.62
2023-02-01T19:53:28.097Z,83.70
2023-02-01T19:55:57.168Z,83.56
2023-02-01T19:58:26.151Z,83.29
2023-02-01T20:00:57.301Z,83.36
2023-02-01T20:03:24.641Z,83.16
2023-02-01T20:05:57.491Z,83.27
2023-02-01T20:08:25.299Z,83.64
2023-02-01T20:10:52.506Z,83.70
2023-02-01T20:13:19.767Z,83.44
2023-02-01T20:15:46.766Z,83.46
2023-02-01T20:18:13.719Z,83.49
2023-02-01T20:20:41.833Z,83.66
2023-02-01T20:23:09.229Z,83.61
2023-02-01T20:25:37.962Z,83.63
2023-02-01T20:28:05.078Z,83.61
2023-02-01T20:30:32.551Z,83.67
2023-02-01T20:32:59.503Z,84.19
2023-02-01T20:35:26.844Z,84.05
2023-02-01T20:37:58.441Z,84.18
2023-02-01T20:40:26.072Z,84.39
2023-02-01T20:42:53.301Z,84.51
2023-02-01T20:45:21.209Z,84.81
2023-02-01T20:47:53.080Z,84.75
2023-02-01T20:50:21.227Z,84.83
2023-02-01T20:52:49.289Z,85.23
2023-02-01T20:55:17.668Z,85.42
2023-02-01T20:57:45.761Z,85.42
2023-02-01T21:00:14.039Z,85.27
2023-02-01T21:02:40.814Z,85.67
2023-02-01T21:05:08.927Z,85.58
2023-02-01T21:07:37.923Z,85.50
2023-02-01T21:10:06.562Z,86.07
2023-02-01T21:12:33.459Z,86.23
2023-02-01T21:15:00.515Z,86.17
2023-02-01T21:17:30.573Z,85.99
2023-02-01T21:19:57.991Z,86.78
2023-02-01T21:22:25.256Z,86.19
2023-02-01T21:24:52.047Z,86.37
2023-02-01T21:27:19.035Z,86.46
2023-02-01T21:29:45.797Z,86.45
2023-02-01T21:32:13.511Z,86.39
2023-02-01T21:34:40.327Z,86.58
2023-02-01T21:37:07.095Z,86.75
2023-02-01T21:39:34.178Z,86.74
2023-02-01T21:42:17.725Z,86.69
2023-02-01T21:44:49.105Z,86.78
2023-02-01T21:47:19.589Z,86.40
2023-02-01T21:49:49.076Z,86.48
2023-02-01T21:52:17.756Z,86.50
2023-02-01T21:54:45.156Z,86.33
2023-02-01T21:57:12.687Z,86.14
2023-02-01T21:59:42.510Z,85.75
2023-02-01T22:02:16.655Z,85.96
2023-02-01T22:04:44.147Z,85.62
2023-02-01T22:07:11.706Z,85.54
2023-02-01T22:09:38.728Z,85.71
2023-02-01T22:12:05.928Z,85.60
2023-02-01T22:14:33.584Z,85.92
2023-02-01T22:17:01.067Z,85.88
2023-02-01T22:19:27.795Z,85.84
2023-02-01T22:21:54.757Z,86.19
2023-02-01T22:24:22.291Z,85.91
2023-02-01T22:26:49.806Z,85.97
2023-02-01T22:29:19.419Z,85.65
2023-02-01T22:31:46.414Z,86.03
2023-02-01T22:34:13.930Z,85.97
2023-02-01T22:36:41.453Z,86.27
2023-02-01T22:39:08.410Z,86.35
2023-02-01T22:41:35.304Z,86.18
2023-02-01T22:44:02.157Z,86.52
2023-02-01T22:46:31.699Z,86.54
2023-02-01T22:48:59.461Z,86.48
2023-02-01T22:51:30.478Z,86.65
2023-02-01T22:53:58.295Z,86.19
2023-02-01T22:56:32.079Z,86.27
2023-02-01T22:59:03.632Z,86.25
2023-02-01T23:01:30.946Z,86.20
2023-02-01T23:04:04.227Z,86.29
2023-02-01T23:06:33.093Z,86.22
2023-02-01T23:09:04.080Z,86.64
2023-02-01T23:11:31.577Z,86.32
2023-02-01T23:13:58.428Z,86.29
2023-02-01T23:16:25.552Z,86.39
2023-02-01T23:18:52.369Z,86.14
2023-02-01T23:21:23.044Z,86.17
2023-02-01T23:23:53.863Z,86.29
2023-02-01T23:26:22.390Z,86.24
2023-02-01T23:28:54.265Z,86.05
2023-02-01T23:31:24.322Z,86.05
2023-02-01T23:33:55.040Z,86.60
2023-02-01T23:36:24.316Z,86.37
2023-02-01T23:38:51.761Z,86.76
2023-02-01T23:41:21.026Z,86.46
2023-02-01T23:44:00.048Z,86.42
2023-02-01T23:46:33.172Z,86.66
2023-02-01T23:49:01.493Z,86.95
2023-02-01T23:51:29.563Z,86.88
2023-02-01T23:53:56.616Z,86.73
2023-02-01T23:56:27.979Z,87.25
2023-02-01T23:58:57.075Z,87.01
